sensor_id;sensor_type;location;lat;lon;timestamp;temperature;humidity
52044;DHT22;38053;53.100;6.078;2024-01-15T00:01:45;1.60;99.90
52044;DHT22;38053;53.100;6.078;2024-01-15T00:04:11;1.60;99.90
52044;DHT22;38053;53.100;6.078;2024-01-15T00:06:36;1.60;99.90
52044;DHT22;38053;53.100;6.078;2024-01-15T00:09:02;1.70;99.90
52044;DHT22;38053;53.100;6.078;2024-01-15T00:11:28;1.80;99.90
52044;DHT22;38053;53.100;6.078;2024-01-15T00:13:53;1.90;99.90
52044;DHT22;38053;53.100;6.078;2024-01-15T00:16:19;1.90;99.90
52044;DHT22;38053;53.100;6.078;2024-01-15T00:18:45;2.00;99.90
52044;DHT22;38053;53.100;6.078;2024-01-15T00:21:10;2.00;99.90
52044;DHT22;38053;53.100;6.078;2024-01-15T00:23:36;2.00;99.90
52044;DHT22;38053;53.100;6.078;2024-01-15T00:26:02;2.00;99.90
52044;DHT22;38053;53.100;6.078;2024-01-15T00:28:27;2.10;99.90
52044;DHT22;38053;53.100;6.078;2024-01-15T00:30:53;2.10;99.90
52044;DHT22;38053;53.100;6.078;2024-01-15T00:33:18;2.00;99.90
52044;DHT22;38053;53.100;6.078;2024-01-15T00:35:44;2.10;99.90
52044;DHT22;38053;53.100;6.078;2024-01-15T00:38:10;2.10;99.90
52044;DHT22;38053;53.100;6.078;2024-01-15T00:40:35;2.20;99.90
52044;DHT22;38053;53.100;6.078;2024-01-15T00:43:01;2.20;99.90
52044;DHT22;38053;53.100;6.078;2024-01-15T00:45:28;2.20;99.90
52044;DHT22;38053;53.100;6.078;2024-01-15T00:47:53;2.30;99.90
52044;DHT22;38053;53.100;6.078;2024-01-15T00:50:24;2.30;99.90
52044;DHT22;38053;53.100;6.078;2024-01-15T00:52:50;2.20;99.90
52044;DHT22;38053;53.100;6.078;2024-01-15T00:55:16;2.00;99.90
52044;DHT22;38053;53.100;6.078;2024-01-15T00:57:41;1.90;99.90
52044;DHT22;38053;53.100;6.078;2024-01-15T01:00:07;1.80;99.90
52044;DHT22;38053;53.100;6.078;2024-01-15T01:02:34;1.70;99.90
52044;DHT22;38053;53.100;6.078;2024-01-15T01:05:00;1.60;99.90
52044;DHT22;38053;53.100;6.078;2024-01-15T01:07:25;1.50;99.90
52044;DHT22;38053;53.100;6.078;2024-01-15T01:09:51;1.40;99.90
52044;DHT22;38053;53.100;6.078;2024-01-15T01:12:17;1.30;99.90
52044;DHT22;38053;53.100;6.078;2024-01-15T01:14:42;1.40;99.90
52044;DHT22;38053;53.100;6.078;2024-01-15T01:17:14;1.30;99.90
52044;DHT22;38053;53.100;6.078;2024-01-15T01:19:40;1.30;99.90
52044;DHT22;38053;53.100;6.078;2024-01-15T01:22:06;1.20;99.90
52044;DHT22;38053;53.100;6.078;2024-01-15T01:24:32;1.20;99.90
52044;DHT22;38053;53.100;6.078;2024-01-15T01:26:58;1.20;99.90
52044;DHT22;38053;53.100;6.078;2024-01-15T01:29:24;1.20;99.90
52044;DHT22;38053;53.100;6.078;2024-01-15T01:31:51;1.20;99.90
52044;DHT22;38053;53.100;6.078;2024-01-15T01:34:17;1.20;99.90
52044;DHT22;38053;53.100;6.078;2024-01-15T01:36:43;1.20;99.90
52044;DHT22;38053;53.100;6.078;2024-01-15T01:39:09;1.20;99.90
52044;DHT22;38053;53.100;6.078;2024-01-15T01:41:35;1.20;99.90
52044;DHT22;38053;53.100;6.078;2024-01-15T01:44:01;1.20;99.90
52044;DHT22;38053;53.100;6.078;2024-01-15T01:46:27;1.20;99.90
52044;DHT22;38053;53.100;6.078;2024-01-15T01:48:57;1.10;99.90
52044;DHT22;38053;53.100;6.078;2024-01-15T01:51:24;1.20;99.90
52044;DHT22;38053;53.100;6.078;2024-01-15T01:53:50;1.20;99.90
52044;DHT22;38053;53.100;6.078;2024-01-15T01:56:17;1.20;99.90
52044;DHT22;38053;53.100;6.078;2024-01-15T01:58:44;1.30;99.90
52044;DHT22;38053;53.100;6.078;2024-01-15T02:01:11;1.30;99.90
52044;DHT22;38053;53.100;6.078;2024-01-15T02:03:39;1.40;99.90
52044;DHT22;38053;53.100;6.078;2024-01-15T02:06:05;1.50;99.90
52044;DHT22;38053;53.100;6.078;2024-01-15T02:08:31;1.50;99.90
52044;DHT22;38053;53.100;6.078;2024-01-15T02:11:04;1.50;99.90
52044;DHT22;38053;53.100;6.078;2024-01-15T02:13:30;1.50;99.90
52044;DHT22;38053;53.100;6.078;2024-01-15T02:15:56;1.60;99.90
52044;DHT22;38053;53.100;6.078;2024-01-15T02:18:21;1.60;99.90
52044;DHT22;38053;53.100;6.078;2024-01-15T02:20:47;1.60;99.90
52044;DHT22;38053;53.100;6.078;2024-01-15T02:23:14;1.60;99.90
52044;DHT22;38053;53.100;6.078;2024-01-15T02:25:46;1.70;99.90
52044;DHT22;38053;53.100;6.078;2024-01-15T02:31:53;1.70;99.90
52044;DHT22;38053;53.100;6.078;2024-01-15T02:34:19;1.70;99.90
52044;DHT22;38053;53.100;6.078;2024-01-15T02:36:45;1.80;99.90
52044;DHT22;38053;53.100;6.078;2024-01-15T02:39:10;1.80;99.90
52044;DHT22;38053;53.100;6.078;2024-01-15T02:41:36;1.80;99.90
52044;DHT22;38053;53.100;6.078;2024-01-15T02:44:02;1.70;99.90
52044;DHT22;38053;53.100;6.078;2024-01-15T02:46:27;1.70;99.90
52044;DHT22;38053;53.100;6.078;2024-01-15T02:48:53;1.60;99.90
52044;DHT22;38053;53.100;6.078;2024-01-15T02:51:18;1.60;99.90
52044;DHT22;38053;53.100;6.078;2024-01-15T02:53:46;1.50;99.90
52044;DHT22;38053;53.100;6.078;2024-01-15T02:56:11;1.60;99.90
52044;DHT22;38053;53.100;6.078;2024-01-15T02:58:37;1.60;99.90
52044;DHT22;38053;53.100;6.078;2024-01-15T03:01:03;1.60;99.90
52044;DHT22;38053;53.100;6.078;2024-01-15T03:03:28;1.70;99.90
52044;DHT22;38053;53.100;6.078;2024-01-15T03:05:54;1.90;99.90
52044;DHT22;38053;53.100;6.078;2024-01-15T03:08:20;1.80;99.90
52044;DHT22;38053;53.100;6.078;2024-01-15T03:10:45;1.80;99.90
52044;DHT22;38053;53.100;6.078;2024-01-15T03:13:11;1.80;99.90
52044;DHT22;38053;53.100;6.078;2024-01-15T03:15:36;1.80;99.90
52044;DHT22;38053;53.100;6.078;2024-01-15T03:18:02;1.80;99.90
52044;DHT22;38053;53.100;6.078;2024-01-15T03:20:28;1.80;99.90
52044;DHT22;38053;53.100;6.078;2024-01-15T03:22:53;1.80;99.90
52044;DHT22;38053;53.100;6.078;2024-01-15T03:25:20;1.70;99.90
52044;DHT22;38053;53.100;6.078;2024-01-15T03:27:46;1.60;99.90
52044;DHT22;38053;53.100;6.078;2024-01-15T03:30:12;1.60;99.90
52044;DHT22;38053;53.100;6.078;2024-01-15T03:32:38;1.50;99.90
52044;DHT22;38053;53.100;6.078;2024-01-15T03:35:03;1.50;99.90
52044;DHT22;38053;53.100;6.078;2024-01-15T03:37:29;1.50;99.90
52044;DHT22;38053;53.100;6.078;2024-01-15T03:39:55;1.60;99.90
52044;DHT22;38053;53.100;6.078;2024-01-15T03:42:23;1.70;99.90
52044;DHT22;38053;53.100;6.078;2024-01-15T03:44:48;1.70;99.90
52044;DHT22;38053;53.100;6.078;2024-01-15T03:47:14;1.80;99.90
52044;DHT22;38053;53.100;6.078;2024-01-15T03:49:40;1.80;99.90
52044;DHT22;38053;53.100;6.078;2024-01-15T03:52:05;1.80;99.90
52044;DHT22;38053;53.100;6.078;2024-01-15T03:54:31;1.80;99.90
52044;DHT22;38053;53.100;6.078;2024-01-15T03:56:56;1.80;99.90
52044;DHT22;38053;53.100;6.078;2024-01-15T03:59:22;1.90;99.90
52044;DHT22;38053;53.100;6.078;2024-01-15T04:01:49;1.90;99.90
52044;DHT22;38053;53.100;6.078;2024-01-15T04:04:35;1.90;99.90
52044;DHT22;38053;53.100;6.078;2024-01-15T04:07:00;1.90;99.90
52044;DHT22;38053;53.100;6.078;2024-01-15T04:09:26;1.90;99.90
52044;DHT22;38053;53.100;6.078;2024-01-15T04:11:51;1.90;99.90
52044;DHT22;38053;53.100;6.078;2024-01-15T04:14:17;1.90;99.90
52044;DHT22;38053;53.100;6.078;2024-01-15T04:16:46;1.80;99.90
52044;DHT22;38053;53.100;6.078;2024-01-15T04:19:11;1.80;99.90
52044;DHT22;38053;53.100;6.078;2024-01-15T04:21:37;1.80;99.90
52044;DHT22;38053;53.100;6.078;2024-01-15T04:24:03;1.80;99.90
52044;DHT22;38053;53.100;6.078;2024-01-15T04:26:28;1.70;99.90
52044;DHT22;38053;53.100;6.078;2024-01-15T04:28:54;1.60;99.90
52044;DHT22;38053;53.100;6.078;2024-01-15T04:31:24;1.60;99.90
52044;DHT22;38053;53.100;6.078;2024-01-15T04:33:50;1.40;99.90
52044;DHT22;38053;53.100;6.078;2024-01-15T04:36:15;1.40;99.90
52044;DHT22;38053;53.100;6.078;2024-01-15T04:38:41;1.30;99.90
52044;DHT22;38053;53.100;6.078;2024-01-15T04:41:13;1.20;99.90
52044;DHT22;38053;53.100;6.078;2024-01-15T04:43:39;1.10;99.90
52044;DHT22;38053;53.100;6.078;2024-01-15T04:46:06;1.00;99.90
52044;DHT22;38053;53.100;6.078;2024-01-15T04:48:32;1.00;99.90
52044;DHT22;38053;53.100;6.078;2024-01-15T04:50:58;1.00;99.90
52044;DHT22;38053;53.100;6.078;2024-01-15T04:53:23;1.00;99.90
52044;DHT22;38053;53.100;6.078;2024-01-15T04:55:49;1.00;99.90
52044;DHT22;38053;53.100;6.078;2024-01-15T04:58:15;1.00;99.90
52044;DHT22;38053;53.100;6.078;2024-01-15T05:00:40;1.00;99.90
52044;DHT22;38053;53.100;6.078;2024-01-15T05:03:06;1.00;99.90
52044;DHT22;38053;53.100;6.078;2024-01-15T05:05:31;1.00;99.90
52044;DHT22;38053;53.100;6.078;2024-01-15T05:07:57;1.10;99.90
52044;DHT22;38053;53.100;6.078;2024-01-15T05:10:23;1.10;99.90
52044;DHT22;38053;53.100;6.078;2024-01-15T05:12:48;1.00;99.90
52044;DHT22;38053;53.100;6.078;2024-01-15T05:15:14;0.90;99.90
52044;DHT22;38053;53.100;6.078;2024-01-15T05:17:42;0.80;99.90
52044;DHT22;38053;53.100;6.078;2024-01-15T05:20:08;0.70;99.90
52044;DHT22;38053;53.100;6.078;2024-01-15T05:22:34;0.60;99.90
52044;DHT22;38053;53.100;6.078;2024-01-15T05:25:00;0.50;99.90
52044;DHT22;38053;53.100;6.078;2024-01-15T05:27:25;0.50;99.90
52044;DHT22;38053;53.100;6.078;2024-01-15T05:29:57;0.40;99.90
52044;DHT22;38053;53.100;6.078;2024-01-15T05:32:23;0.40;99.90
52044;DHT22;38053;53.100;6.078;2024-01-15T05:34:49;0.30;99.90
52044;DHT22;38053;53.100;6.078;2024-01-15T05:37:17;0.30;99.90
52044;DHT22;38053;53.100;6.078;2024-01-15T05:39:43;0.30;99.90
52044;DHT22;38053;53.100;6.078;2024-01-15T05:42:10;0.40;99.90
52044;DHT22;38053;53.100;6.078;2024-01-15T05:44:36;0.40;99.90
52044;DHT22;38053;53.100;6.078;2024-01-15T05:47:01;0.40;99.90
52044;DHT22;38053;53.100;6.078;2024-01-15T05:49:28;0.40;99.90
52044;DHT22;38053;53.100;6.078;2024-01-15T05:51:54;0.40;99.90
52044;DHT22;38053;53.100;6.078;2024-01-15T05:54:20;0.40;99.90
52044;DHT22;38053;53.100;6.078;2024-01-15T05:56:46;0.50;99.90
52044;DHT22;38053;53.100;6.078;2024-01-15T05:59:11;0.50;99.90
52044;DHT22;38053;53.100;6.078;2024-01-15T06:01:37;0.50;99.90
52044;DHT22;38053;53.100;6.078;2024-01-15T06:04:03;0.50;99.90
52044;DHT22;38053;53.100;6.078;2024-01-15T06:06:28;0.50;99.90
52044;DHT22;38053;53.100;6.078;2024-01-15T06:08:54;0.50;99.90
52044;DHT22;38053;53.100;6.078;2024-01-15T06:11:20;0.50;99.90
52044;DHT22;38053;53.100;6.078;2024-01-15T06:13:45;0.60;99.90
52044;DHT22;38053;53.100;6.078;2024-01-15T06:16:14;0.60;99.90
52044;DHT22;38053;53.100;6.078;2024-01-15T06:26:03;0.90;99.90
52044;DHT22;38053;53.100;6.078;2024-01-15T06:28:29;1.00;99.90
52044;DHT22;38053;53.100;6.078;2024-01-15T06:30:57;1.10;99.90
52044;DHT22;38053;53.100;6.078;2024-01-15T06:33:23;1.10;99.90
52044;DHT22;38053;53.100;6.078;2024-01-15T06:35:55;1.10;99.90
52044;DHT22;38053;53.100;6.078;2024-01-15T06:38:24;1.10;99.90
52044;DHT22;38053;53.100;6.078;2024-01-15T06:43:51;1.00;99.90
52044;DHT22;38053;53.100;6.078;2024-01-15T06:46:35;1.00;99.90
52044;DHT22;38053;53.100;6.078;2024-01-15T06:49:01;0.90;99.90
52044;DHT22;38053;53.100;6.078;2024-01-15T06:51:33;0.90;99.90
52044;DHT22;38053;53.100;6.078;2024-01-15T06:54:01;0.80;99.90
52044;DHT22;38053;53.100;6.078;2024-01-15T06:56:31;0.80;99.90
52044;DHT22;38053;53.100;6.078;2024-01-15T06:59:00;0.80;99.90
52044;DHT22;38053;53.100;6.078;2024-01-15T07:01:28;0.80;99.90
52044;DHT22;38053;53.100;6.078;2024-01-15T07:03:54;0.70;99.90
52044;DHT22;38053;53.100;6.078;2024-01-15T07:06:20;0.70;99.90
52044;DHT22;38053;53.100;6.078;2024-01-15T07:08:52;0.70;99.90
52044;DHT22;38053;53.100;6.078;2024-01-15T07:11:26;0.70;99.90
52044;DHT22;38053;53.100;6.078;2024-01-15T07:13:58;0.70;99.90
52044;DHT22;38053;53.100;6.078;2024-01-15T07:16:30;0.70;99.90
52044;DHT22;38053;53.100;6.078;2024-01-15T07:19:26;0.70;99.90
52044;DHT22;38053;53.100;6.078;2024-01-15T07:25:46;0.70;99.90
52044;DHT22;38053;53.100;6.078;2024-01-15T07:28:12;0.70;99.90
52044;DHT22;38053;53.100;6.078;2024-01-15T07:30:37;0.70;99.90
52044;DHT22;38053;53.100;6.078;2024-01-15T07:33:10;0.70;99.90
52044;DHT22;38053;53.100;6.078;2024-01-15T07:35:36;0.70;99.90
52044;DHT22;38053;53.100;6.078;2024-01-15T07:38:01;0.70;99.90
52044;DHT22;38053;53.100;6.078;2024-01-15T07:40:33;0.70;99.90
52044;DHT22;38053;53.100;6.078;2024-01-15T07:42:59;0.70;99.90
52044;DHT22;38053;53.100;6.078;2024-01-15T07:45:37;0.70;99.90
52044;DHT22;38053;53.100;6.078;2024-01-15T07:48:13;0.70;99.90
52044;DHT22;38053;53.100;6.078;2024-01-15T07:50:42;0.70;99.90
52044;DHT22;38053;53.100;6.078;2024-01-15T07:53:08;0.80;99.90
52044;DHT22;38053;53.100;6.078;2024-01-15T07:55:36;0.80;99.90
52044;DHT22;38053;53.100;6.078;2024-01-15T07:58:02;0.80;99.90
52044;DHT22;38053;53.100;6.078;2024-01-15T08:04:45;0.90;99.90
52044;DHT22;38053;53.100;6.078;2024-01-15T08:07:14;0.90;99.90
52044;DHT22;38053;53.100;6.078;2024-01-15T08:09:40;0.90;99.90
52044;DHT22;38053;53.100;6.078;2024-01-15T08:12:06;0.80;99.90
52044;DHT22;38053;53.100;6.078;2024-01-15T08:14:32;0.80;99.90
52044;DHT22;38053;53.100;6.078;2024-01-15T08:20:46;0.90;99.90
52044;DHT22;38053;53.100;6.078;2024-01-15T08:23:11;0.80;99.90
52044;DHT22;38053;53.100;6.078;2024-01-15T08:25:37;0.80;99.90
52044;DHT22;38053;53.100;6.078;2024-01-15T08:28:03;0.80;99.90
52044;DHT22;38053;53.100;6.078;2024-01-15T08:30:28;0.80;99.90
52044;DHT22;38053;53.100;6.078;2024-01-15T08:32:55;0.80;99.90
52044;DHT22;38053;53.100;6.078;2024-01-15T08:35:20;0.90;99.90
52044;DHT22;38053;53.100;6.078;2024-01-15T08:37:50;0.90;99.90
52044;DHT22;38053;53.100;6.078;2024-01-15T08:40:16;1.10;99.90
52044;DHT22;38053;53.100;6.078;2024-01-15T08:42:42;1.20;99.90
52044;DHT22;38053;53.100;6.078;2024-01-15T08:45:09;1.20;99.90
52044;DHT22;38053;53.100;6.078;2024-01-15T08:47:35;1.20;99.90
52044;DHT22;38053;53.100;6.078;2024-01-15T08:50:01;1.20;99.90
52044;DHT22;38053;53.100;6.078;2024-01-15T08:52:27;1.20;99.90
52044;DHT22;38053;53.100;6.078;2024-01-15T08:54:54;1.10;99.90
52044;DHT22;38053;53.100;6.078;2024-01-15T08:57:19;1.10;99.90
52044;DHT22;38053;53.100;6.078;2024-01-15T08:59:45;1.10;99.90
52044;DHT22;38053;53.100;6.078;2024-01-15T09:02:11;1.10;99.90
52044;DHT22;38053;53.100;6.078;2024-01-15T09:04:36;1.10;99.90
52044;DHT22;38053;53.100;6.078;2024-01-15T09:07:02;1.10;99.90
52044;DHT22;38053;53.100;6.078;2024-01-15T09:09:28;1.10;99.90
52044;DHT22;38053;53.100;6.078;2024-01-15T09:11:53;1.10;99.90
52044;DHT22;38053;53.100;6.078;2024-01-15T09:14:19;1.20;99.90
52044;DHT22;38053;53.100;6.078;2024-01-15T09:16:47;1.20;99.90
52044;DHT22;38053;53.100;6.078;2024-01-15T09:19:13;1.40;99.90
52044;DHT22;38053;53.100;6.078;2024-01-15T09:21:39;1.50;99.90
52044;DHT22;38053;53.100;6.078;2024-01-15T09:24:10;1.60;99.90
52044;DHT22;38053;53.100;6.078;2024-01-15T09:26:36;1.70;99.90
52044;DHT22;38053;53.100;6.078;2024-01-15T09:29:02;1.70;99.90
52044;DHT22;38053;53.100;6.078;2024-01-15T09:31:28;1.60;99.90
52044;DHT22;38053;53.100;6.078;2024-01-15T09:33:54;1.60;99.90
52044;DHT22;38053;53.100;6.078;2024-01-15T09:36:24;1.60;99.90
52044;DHT22;38053;53.100;6.078;2024-01-15T09:38:49;1.60;99.90
52044;DHT22;38053;53.100;6.078;2024-01-15T09:41:15;1.60;99.90
52044;DHT22;38053;53.100;6.078;2024-01-15T09:43:45;1.60;99.90
52044;DHT22;38053;53.100;6.078;2024-01-15T09:46:11;1.60;99.90
52044;DHT22;38053;53.100;6.078;2024-01-15T09:48:37;1.70;99.90
52044;DHT22;38053;53.100;6.078;2024-01-15T10:06:45;2.30;99.90
52044;DHT22;38053;53.100;6.078;2024-01-15T10:09:15;2.30;99.90
52044;DHT22;38053;53.100;6.078;2024-01-15T10:11:45;2.30;99.90
52044;DHT22;38053;53.100;6.078;2024-01-15T10:14:11;2.30;99.90
52044;DHT22;38053;53.100;6.078;2024-01-15T10:16:38;2.30;99.90
52044;DHT22;38053;53.100;6.078;2024-01-15T10:19:08;2.40;99.90
52044;DHT22;38053;53.100;6.078;2024-01-15T10:21:34;2.50;99.90
52044;DHT22;38053;53.100;6.078;2024-01-15T10:24:00;2.50;99.90
52044;DHT22;38053;53.100;6.078;2024-01-15T10:26:26;2.50;99.90
52044;DHT22;38053;53.100;6.078;2024-01-15T10:28:55;2.50;99.90
52044;DHT22;38053;53.100;6.078;2024-01-15T10:31:21;2.60;99.90
52044;DHT22;38053;53.100;6.078;2024-01-15T10:33:50;2.50;99.90
52044;DHT22;38053;53.100;6.078;2024-01-15T10:36:16;2.40;99.90
52044;DHT22;38053;53.100;6.078;2024-01-15T10:38:57;2.20;99.90
52044;DHT22;38053;53.100;6.078;2024-01-15T10:41:23;2.20;99.90
52044;DHT22;38053;53.100;6.078;2024-01-15T10:43:49;2.10;99.90
52044;DHT22;38053;53.100;6.078;2024-01-15T10:46:24;2.00;99.90
52044;DHT22;38053;53.100;6.078;2024-01-15T10:48:50;2.00;99.90
52044;DHT22;38053;53.100;6.078;2024-01-15T10:51:16;1.90;99.90
52044;DHT22;38053;53.100;6.078;2024-01-15T10:53:53;1.90;99.90
52044;DHT22;38053;53.100;6.078;2024-01-15T10:56:22;1.90;99.90
52044;DHT22;38053;53.100;6.078;2024-01-15T10:58:50;1.90;99.90
52044;DHT22;38053;53.100;6.078;2024-01-15T11:01:16;2.00;99.90
52044;DHT22;38053;53.100;6.078;2024-01-15T11:03:48;2.00;99.90
52044;DHT22;38053;53.100;6.078;2024-01-15T11:06:24;2.00;99.90
52044;DHT22;38053;53.100;6.078;2024-01-15T11:08:53;2.00;99.90
52044;DHT22;38053;53.100;6.078;2024-01-15T11:11:35;2.00;99.90
52044;DHT22;38053;53.100;6.078;2024-01-15T11:14:02;2.00;99.90
52044;DHT22;38053;53.100;6.078;2024-01-15T11:19:52;2.10;99.90
52044;DHT22;38053;53.100;6.078;2024-01-15T11:25:16;2.20;99.90
52044;DHT22;38053;53.100;6.078;2024-01-15T11:28:13;2.30;99.90
52044;DHT22;38053;53.100;6.078;2024-01-15T11:31:01;2.40;99.90
52044;DHT22;38053;53.100;6.078;2024-01-15T11:33:35;2.50;99.90
52044;DHT22;38053;53.100;6.078;2024-01-15T11:36:00;2.40;99.90
52044;DHT22;38053;53.100;6.078;2024-01-15T11:38:27;2.30;99.90
52044;DHT22;38053;53.100;6.078;2024-01-15T11:40:54;2.00;99.90
52044;DHT22;38053;53.100;6.078;2024-01-15T11:43:21;1.90;99.90
52044;DHT22;38053;53.100;6.078;2024-01-15T11:45:52;1.70;99.90
52044;DHT22;38053;53.100;6.078;2024-01-15T11:48:19;1.50;99.90
52044;DHT22;38053;53.100;6.078;2024-01-15T11:50:57;1.40;99.90
52044;DHT22;38053;53.100;6.078;2024-01-15T11:53:36;1.30;99.90
52044;DHT22;38053;53.100;6.078;2024-01-15T11:56:03;1.30;99.90
52044;DHT22;38053;53.100;6.078;2024-01-15T11:58:31;1.40;99.90
52044;DHT22;38053;53.100;6.078;2024-01-15T12:00:57;1.30;99.90
52044;DHT22;38053;53.100;6.078;2024-01-15T12:03:24;1.40;99.90
52044;DHT22;38053;53.100;6.078;2024-01-15T12:05:51;1.40;99.90
52044;DHT22;38053;53.100;6.078;2024-01-15T12:11:23;1.50;99.90
52044;DHT22;38053;53.100;6.078;2024-01-15T12:13:50;1.60;99.90
52044;DHT22;38053;53.100;6.078;2024-01-15T12:16:19;1.70;99.90
52044;DHT22;38053;53.100;6.078;2024-01-15T12:18:45;1.80;99.90
52044;DHT22;38053;53.100;6.078;2024-01-15T12:21:15;1.80;99.90
52044;DHT22;38053;53.100;6.078;2024-01-15T12:23:46;1.90;99.90
52044;DHT22;38053;53.100;6.078;2024-01-15T12:26:12;2.20;99.90
52044;DHT22;38053;53.100;6.078;2024-01-15T12:28:37;2.50;99.90
52044;DHT22;38053;53.100;6.078;2024-01-15T12:31:05;2.80;99.90
52044;DHT22;38053;53.100;6.078;2024-01-15T12:33:31;3.00;99.90
52044;DHT22;38053;53.100;6.078;2024-01-15T12:35:56;3.30;99.90
52044;DHT22;38053;53.100;6.078;2024-01-15T12:38:22;3.30;99.90
52044;DHT22;38053;53.100;6.078;2024-01-15T12:41:35;3.40;99.90
52044;DHT22;38053;53.100;6.078;2024-01-15T12:44:17;3.60;99.90
52044;DHT22;38053;53.100;6.078;2024-01-15T12:46:43;3.90;99.90
52044;DHT22;38053;53.100;6.078;2024-01-15T12:49:18;4.00;99.90
52044;DHT22;38053;53.100;6.078;2024-01-15T12:51:56;4.10;99.90
52044;DHT22;38053;53.100;6.078;2024-01-15T13:18:26;2.60;99.90
52044;DHT22;38053;53.100;6.078;2024-01-15T13:29:01;3.10;99.90
52044;DHT22;38053;53.100;6.078;2024-01-15T13:31:27;3.40;99.90
52044;DHT22;38053;53.100;6.078;2024-01-15T13:33:53;3.30;99.90
52044;DHT22;38053;53.100;6.078;2024-01-15T13:36:47;3.40;99.90
52044;DHT22;38053;53.100;6.078;2024-01-15T13:43:31;3.20;99.90
52044;DHT22;38053;53.100;6.078;2024-01-15T13:45:58;3.20;99.90
52044;DHT22;38053;53.100;6.078;2024-01-15T13:48:26;3.10;99.90
52044;DHT22;38053;53.100;6.078;2024-01-15T13:50:53;3.10;99.90
52044;DHT22;38053;53.100;6.078;2024-01-15T13:53:18;3.00;99.90
52044;DHT22;38053;53.100;6.078;2024-01-15T13:55:44;3.00;99.90
52044;DHT22;38053;53.100;6.078;2024-01-15T13:58:10;2.90;99.90
52044;DHT22;38053;53.100;6.078;2024-01-15T14:00:36;2.90;99.90
52044;DHT22;38053;53.100;6.078;2024-01-15T14:03:02;2.90;99.90
52044;DHT22;38053;53.100;6.078;2024-01-15T14:05:29;2.80;99.90
52044;DHT22;38053;53.100;6.078;2024-01-15T14:08:00;2.70;99.90
52044;DHT22;38053;53.100;6.078;2024-01-15T14:10:26;2.80;99.90
52044;DHT22;38053;53.100;6.078;2024-01-15T14:12:51;2.90;99.90
52044;DHT22;38053;53.100;6.078;2024-01-15T14:15:17;3.20;99.90
52044;DHT22;38053;53.100;6.078;2024-01-15T14:21:25;3.50;99.90
52044;DHT22;38053;53.100;6.078;2024-01-15T14:23:51;3.60;99.90
52044;DHT22;38053;53.100;6.078;2024-01-15T14:26:17;3.50;99.90
52044;DHT22;38053;53.100;6.078;2024-01-15T14:28:55;3.40;99.90
52044;DHT22;38053;53.100;6.078;2024-01-15T14:31:28;3.30;99.90
52044;DHT22;38053;53.100;6.078;2024-01-15T14:33:54;3.20;99.90
52044;DHT22;38053;53.100;6.078;2024-01-15T14:36:20;3.10;99.90
52044;DHT22;38053;53.100;6.078;2024-01-15T14:38:46;3.00;99.90
52044;DHT22;38053;53.100;6.078;2024-01-15T14:41:12;2.70;99.90
52044;DHT22;38053;53.100;6.078;2024-01-15T14:43:37;2.60;99.90
52044;DHT22;38053;53.100;6.078;2024-01-15T14:46:03;2.50;99.90
52044;DHT22;38053;53.100;6.078;2024-01-15T14:48:38;2.40;99.90
52044;DHT22;38053;53.100;6.078;2024-01-15T14:51:03;2.20;99.90
52044;DHT22;38053;53.100;6.078;2024-01-15T14:53:29;2.10;99.90
52044;DHT22;38053;53.100;6.078;2024-01-15T14:55:55;1.90;99.90
52044;DHT22;38053;53.100;6.078;2024-01-15T14:58:37;1.70;99.90
52044;DHT22;38053;53.100;6.078;2024-01-15T15:01:02;1.60;99.90
52044;DHT22;38053;53.100;6.078;2024-01-15T15:06:38;1.40;99.90
52044;DHT22;38053;53.100;6.078;2024-01-15T15:09:04;1.40;99.90
52044;DHT22;38053;53.100;6.078;2024-01-15T15:11:46;1.40;99.90
52044;DHT22;38053;53.100;6.078;2024-01-15T15:14:15;1.30;99.90
52044;DHT22;38053;53.100;6.078;2024-01-15T15:16:40;1.30;99.90
52044;DHT22;38053;53.100;6.078;2024-01-15T15:19:06;1.30;99.90
52044;DHT22;38053;53.100;6.078;2024-01-15T15:21:31;1.40;99.90
52044;DHT22;38053;53.100;6.078;2024-01-15T15:23:57;1.40;99.90
52044;DHT22;38053;53.100;6.078;2024-01-15T15:26:23;1.40;99.90
52044;DHT22;38053;53.100;6.078;2024-01-15T15:28:48;1.40;99.90
52044;DHT22;38053;53.100;6.078;2024-01-15T15:31:32;1.40;99.90
52044;DHT22;38053;53.100;6.078;2024-01-15T15:34:03;1.40;99.90
52044;DHT22;38053;53.100;6.078;2024-01-15T15:36:32;1.30;99.90
52044;DHT22;38053;53.100;6.078;2024-01-15T15:50:34;1.30;99.90
52044;DHT22;38053;53.100;6.078;2024-01-15T15:53:24;1.40;99.90
52044;DHT22;38053;53.100;6.078;2024-01-15T15:55:50;1.40;99.90
52044;DHT22;38053;53.100;6.078;2024-01-15T15:58:18;1.50;99.90
52044;DHT22;38053;53.100;6.078;2024-01-15T16:00:43;1.40;99.90
52044;DHT22;38053;53.100;6.078;2024-01-15T16:03:15;1.40;99.90
52044;DHT22;38053;53.100;6.078;2024-01-15T16:05:40;1.50;99.90
52044;DHT22;38053;53.100;6.078;2024-01-15T16:08:06;1.50;99.90
52044;DHT22;38053;53.100;6.078;2024-01-15T16:10:32;1.50;99.90
52044;DHT22;38053;53.100;6.078;2024-01-15T16:12:57;1.50;99.90
52044;DHT22;38053;53.100;6.078;2024-01-15T16:15:23;1.40;99.90
52044;DHT22;38053;53.100;6.078;2024-01-15T16:17:49;1.40;99.90
52044;DHT22;38053;53.100;6.078;2024-01-15T16:20:19;1.30;99.90
52044;DHT22;38053;53.100;6.078;2024-01-15T16:22:48;1.30;99.90
52044;DHT22;38053;53.100;6.078;2024-01-15T16:25:14;1.30;99.90
52044;DHT22;38053;53.100;6.078;2024-01-15T16:27:41;1.20;99.90
52044;DHT22;38053;53.100;6.078;2024-01-15T16:30:08;1.10;99.90
52044;DHT22;38053;53.100;6.078;2024-01-15T16:32:36;1.10;99.90
52044;DHT22;38053;53.100;6.078;2024-01-15T16:35:02;1.00;99.90
52044;DHT22;38053;53.100;6.078;2024-01-15T16:37:28;1.00;99.90
52044;DHT22;38053;53.100;6.078;2024-01-15T16:39:54;1.00;99.90
52044;DHT22;38053;53.100;6.078;2024-01-15T16:42:23;0.90;99.90
52044;DHT22;38053;53.100;6.078;2024-01-15T16:44:49;0.90;99.90
52044;DHT22;38053;53.100;6.078;2024-01-15T16:47:15;0.80;99.90
52044;DHT22;38053;53.100;6.078;2024-01-15T16:49:41;0.80;99.90
52044;DHT22;38053;53.100;6.078;2024-01-15T16:52:07;0.70;99.90
52044;DHT22;38053;53.100;6.078;2024-01-15T16:54:33;0.70;99.90
52044;DHT22;38053;53.100;6.078;2024-01-15T16:57:00;0.70;99.90
52044;DHT22;38053;53.100;6.078;2024-01-15T16:59:26;0.70;99.90
52044;DHT22;38053;53.100;6.078;2024-01-15T17:01:51;0.70;99.90
52044;DHT22;38053;53.100;6.078;2024-01-15T17:04:17;0.70;99.90
52044;DHT22;38053;53.100;6.078;2024-01-15T17:06:43;0.70;99.90
52044;DHT22;38053;53.100;6.078;2024-01-15T17:09:08;0.70;99.90
52044;DHT22;38053;53.100;6.078;2024-01-15T17:11:34;0.70;99.90
52044;DHT22;38053;53.100;6.078;2024-01-15T17:14:00;0.80;99.90
52044;DHT22;38053;53.100;6.078;2024-01-15T17:16:25;0.80;99.90
52044;DHT22;38053;53.100;6.078;2024-01-15T17:18:51;0.80;99.90
52044;DHT22;38053;53.100;6.078;2024-01-15T17:21:17;0.70;99.90
52044;DHT22;38053;53.100;6.078;2024-01-15T17:23:43;0.70;99.90
52044;DHT22;38053;53.100;6.078;2024-01-15T17:26:12;0.70;99.90
52044;DHT22;38053;53.100;6.078;2024-01-15T17:28:48;0.60;99.90
52044;DHT22;38053;53.100;6.078;2024-01-15T17:31:28;0.60;99.90
52044;DHT22;38053;53.100;6.078;2024-01-15T17:34:05;0.60;99.90